Terminal Aerodrome Forecast
Issued by NWS Buffalo, NY

Home | Current Version | Previous Version | Text Only | Print | Product List | Glossary On
Versions: 1 2 3 4 5 6 7 8 9 10 11 12 13 14 15 16 17 18 19 20 21
000
FTUS41 KBUF 260546
TAFART
TAF
KART 260546Z 2606/2706 21009KT P6SM VCSH OVC060
     FM260800 22009KT P6SM VCSH OVC060 WS020/26040KT
     FM261400 23010KT P6SM SCT250
     FM262100 23009KT P6SM BKN250
     FM270300 19006KT P6SM VCSH BKN100=

USA.gov is the U.S. government's official web portal to all federal, state and local government web resources and services.